Terminal Aerodrome Forecast
Issued by NWS

Home | Current Version | Previous Version | Text Only | Print | Product List | Glossary On
Versions: 1 2 3 4 5 6 7 8 9 10 11 12 13 14 15 16 17 18 19 20 21 22 23 24
847
FTUS44 KLIX 241144
TAFGPT
TAF
KGPT 241144Z 2412/2512 18007KT P6SM SCT025
     FM241500 15012G20KT P6SM OVC035
     FM242000 15014G21KT P6SM VCSH BKN020
     FM250000 18010KT P6SM SCT015
     FM250800 17006KT 4SM BR OVC003=

USA.gov is the U.S. government's official web portal to all federal, state and local government web resources and services.